Time;durP1;ratioP1;P1;durP2;ratioP2;P2;SDS_P1;SDS_P2;PMS_P1;PMS_P2;Temp;Humidity;BMP_temperature;BMP_pressure;BME280_temperature;BME280_humidity;BME280_pressure;Samples;Min_cycle;Max_cycle;Signal;HPM_P1;HPM_P2
2022/12/08 09:54:44;;;;;;;13.80;10.77;;;;;;;3.59;100.00;98166.88;5070254;27;21482;-81
2022/12/08 09:57:20;;;;;;;16.57;11.43;;;;;;;4.27;100.00;98191.63;5051054;28;38911;-80
2022/12/08 09:59:54;;;;;;;12.83;10.27;;;;;;;5.00;100.00;98226.50;5085109;28;42244;-80
2022/12/08 10:02:23;;;;;;;12.53;9.07;;;;;;;5.44;100.00;98226.84;5051703;28;42420;-80
2022/12/08 10:04:54;;;;;;;14.23;10.10;;;;;;;5.64;100.00;98205.66;5051232;28;42154;-83
2022/12/08 10:07:40;;;;;;;13.03;9.53;;;;;;;6.09;100.00;98220.75;5051224;28;40229;-79
2022/12/08 10:10:27;;;;;;;14.77;10.43;;;;;;;6.13;99.57;98196.03;5051715;28;40873;-82
2022/12/08 10:13:06;;;;;;;9.90;8.63;;;;;;;6.24;95.80;98197.19;5051207;28;42977;-84
2022/12/08 10:15:44;;;;;;;10.70;8.33;;;;;;;6.13;94.29;98172.34;5051827;28;40990;-83
2022/12/08 10:18:16;;;;;;;9.90;8.30;;;;;;;6.56;92.94;98221.69;5050893;28;39625;-81
2022/12/08 10:20:46;;;;;;;12.63;8.37;;;;;;;6.48;91.03;98198.47;5051395;28;40423;-81
2022/12/08 10:23:28;;;;;;;11.03;8.80;;;;;;;6.60;90.45;98196.91;5051041;28;43160;-83
2022/12/08 10:26:16;;;;;;;10.37;8.83;;;;;;;6.74;89.08;98210.97;5051590;28;41699;-84
2022/12/08 10:28:44;;;;;;;11.80;8.60;;;;;;;6.71;87.01;98211.16;5051803;28;39032;-81
2022/12/08 10:31:15;;;;;;;11.80;8.83;;;;;;;6.76;86.25;98213.53;5051176;28;40586;-82
2022/12/08 10:33:44;;;;;;;9.70;8.20;;;;;;;6.82;84.47;98224.53;5066152;28;42875;-81
2022/12/08 10:36:12;;;;;;;12.53;8.77;;;;;;;6.82;83.75;98207.91;5050858;28;41224;-80
2022/12/08 10:38:42;;;;;;;12.60;9.17;;;;;;;6.93;83.71;98210.75;5050687;28;40118;-82
2022/12/08 10:41:16;;;;;;;10.13;8.60;;;;;;;6.91;83.83;98190.75;5051130;28;40535;-81
2022/12/08 10:43:48;;;;;;;11.57;8.60;;;;;;;6.90;82.72;98183.78;5050700;28;42965;-80
2022/12/08 10:46:19;;;;;;;8.97;8.07;;;;;;;6.97;82.35;98198.28;5050857;28;41074;-81
2022/12/08 10:48:49;;;;;;;8.30;7.47;;;;;;;7.11;82.02;98211.47;5050462;28;39105;-78
2022/12/08 10:51:28;;;;;;;11.40;8.53;;;;;;;7.11;81.02;98199.16;5050878;28;41755;-82
2022/12/08 10:53:57;;;;;;;9.57;7.70;;;;;;;7.18;81.34;98183.84;5049983;28;43105;-81
2022/12/08 10:56:30;;;;;;;10.00;8.23;;;;;;;7.32;81.26;98191.75;5050752;28;41745;-80
2022/12/08 10:59:15;;;;;;;10.60;8.53;;;;;;;7.37;80.96;98180.97;5050888;28;38832;-80
2022/12/08 11:01:47;;;;;;;9.50;8.10;;;;;;;7.41;80.65;98171.94;5050604;28;41771;-80
2022/12/08 11:04:18;;;;;;;9.97;8.40;;;;;;;7.36;79.90;98156.41;5047025;28;41763;-79
2022/12/08 11:06:47;;;;;;;9.77;8.77;;;;;;;7.39;79.75;98153.59;5054252;28;42296;-82
2022/12/08 11:09:37;;;;;;;9.73;8.23;;;;;;;7.70;79.75;98183.31;5037297;28;39892;-81
2022/12/08 11:12:14;;;;;;;12.37;8.97;;;;;;;7.72;77.79;98189.34;5036915;28;40335;-81
2022/12/08 11:14:51;;;;;;;9.23;7.83;;;;;;;7.71;77.40;98182.38;5036839;28;41663;-84
2022/12/08 11:17:26;;;;;;;9.37;7.97;;;;;;;7.69;76.80;98184.25;5036607;28;41437;-80
2022/12/08 11:19:59;;;;;;;9.63;7.87;;;;;;;7.57;77.27;98159.50;5037118;28;39205;-80
2022/12/08 11:22:31;;;;;;;10.83;8.17;;;;;;;7.76;77.87;98175.91;5036545;28;43071;-81
2022/12/08 11:25:02;;;;;;;10.30;8.43;;;;;;;7.78;77.34;98173.16;5050397;28;42854;-81
2022/12/08 11:27:33;;;;;;;9.17;6.97;;;;;;;7.67;76.37;98167.69;5036545;28;41253;-79
2022/12/08 11:30:01;;;;;;;10.23;7.50;;;;;;;7.60;75.36;98167.22;5054675;28;39685;-79
2022/12/08 11:32:29;;;;;;;8.50;7.43;;;;;;;7.49;74.87;98165.25;5036643;28;40827;-79
2022/12/08 11:35:03;;;;;;;8.73;7.27;;;;;;;7.44;74.57;98158.56;5036310;28;42836;-81
2022/12/08 11:37:37;;;;;;;8.93;7.67;;;;;;;7.43;74.96;98165.63;5036462;28;43095;-81
2022/12/08 11:43:18;;;;;;;8.43;7.53;;;;;;;7.37;75.46;98144.94;5036168;28;42631;-84
2022/12/08 11:45:50;;;;;;;9.53;7.43;;;;;;;7.33;74.15;98151.31;5036667;28;42806;-79
2022/12/08 11:48:26;;;;;;;9.00;7.90;;;;;;;7.46;74.91;98167.22;5037160;28;41302;-83
2022/12/08 11:51:02;;;;;;;8.17;6.87;;;;;;;7.42;75.04;98150.75;5036659;28;39109;-82
2022/12/08 11:53:45;;;;;;;9.27;8.30;;;;;;;7.51;74.70;98155.47;5036506;28;41854;-80
2022/12/08 11:56:34;;;;;;;10.27;8.20;;;;;;;7.56;73.83;98149.91;5036186;28;42889;-82
2022/12/08 11:59:32;;;;;;;11.83;8.30;;;;;;;7.40;74.52;98121.06;5035783;28;41232;-80
2022/12/08 12:02:04;;;;;;;9.50;6.87;;;;;;;7.46;74.10;98120.66;5035705;28;39635;-82
2022/12/08 12:04:38;;;;;;;8.73;7.17;;;;;;;7.65;74.13;98140.63;5036268;28;42026;-82
2022/12/08 12:07:39;;;;;;;8.40;6.77;;;;;;;7.63;73.51;98137.22;5049561;28;42636;-83
2022/12/08 12:10:41;;;;;;;8.63;6.80;;;;;;;7.53;73.67;98111.44;5036344;28;41115;-84
2022/12/08 12:13:52;;;;;;;6.10;5.17;;;;;;;7.67;73.26;98121.09;5035663;28;38907;-80
2022/12/08 12:20:17;;;;;;;8.47;7.00;;;;;;;7.99;73.14;98134.91;5034909;28;43146;-81
2022/12/08 12:22:50;;;;;;;6.27;5.67;;;;;;;7.94;73.44;98118.53;5035640;28;41326;-81
2022/12/08 12:25:24;;;;;;;7.57;6.77;;;;;;;7.79;72.22;98106.34;5034633;28;39043;-81
2022/12/08 12:27:56;;;;;;;7.50;6.57;;;;;;;7.92;71.73;98134.44;5035231;28;41471;-80
2022/12/08 12:31:14;;;;;;;7.27;5.97;;;;;;;7.64;71.52;98102.88;5045615;28;42119;-79
2022/12/08 12:33:45;;;;;;;7.73;6.27;;;;;;;7.69;72.37;98116.59;5049196;28;41287;-79
2022/12/08 12:39:25;;;;;;;7.43;6.50;;;;;;;7.56;73.14;98132.31;5136311;27;42393;-81
2022/12/08 12:49:12;;;;;;;7.20;5.73;;;;;;;7.42;73.93;98131.47;5102812;27;38883;-84
2022/12/08 12:55:50;;;;;;;8.67;7.20;;;;;;;7.19;73.50;98102.13;5099671;27;42448;-82
2022/12/08 13:01:50;;;;;;;8.33;7.10;;;;;;;7.22;73.61;98122.16;5131537;27;40865;-80
2022/12/08 13:07:43;;;;;;;7.60;6.43;;;;;;;7.01;74.04;98097.13;5097450;27;42512;-84
2022/12/08 13:10:14;;;;;;;7.53;6.57;;;;;;;7.12;73.32;98115.75;5097976;27;40819;-81
2022/12/08 13:13:35;;;;;;;6.90;5.83;;;;;;;6.92;73.93;98093.28;5056198;28;41618;-83
2022/12/08 13:16:13;;;;;;;7.57;6.70;;;;;;;7.10;73.58;98122.91;5091616;28;40590;-82
2022/12/08 13:22:13;;;;;;;9.03;6.43;;;;;;;6.97;74.21;98072.78;5079380;28;41250;-80
2022/12/08 13:25:16;;;;;;;8.13;7.00;;;;;;;7.01;73.78;98070.81;5058306;28;38804;-81
2022/12/08 13:28:08;;;;;;;8.43;6.17;;;;;;;7.05;74.23;98069.66;5057094;28;40867;-83
2022/12/08 13:54:46;;;;;;;5.53;4.47;;;;;;;7.50;72.45;98085.28;5098049;27;40778;-85
2022/12/08 13:57:37;;;;;;;5.60;4.90;;;;;;;7.36;72.50;98060.75;5097307;27;42158;-82
2022/12/08 14:00:08;;;;;;;7.20;5.70;;;;;;;7.36;72.13;98073.91;5096527;27;45045;-82
2022/12/08 14:05:49;;;;;;;6.53;5.50;;;;;;;7.44;71.72;98106.72;5098149;27;39660;-81
2022/12/08 14:08:42;;;;;;;6.47;5.37;;;;;;;7.40;71.59;98115.78;5098460;27;43265;-81
2022/12/08 14:11:52;;;;;;;9.93;5.77;;;;;;;7.20;71.25;98084.53;5115124;27;45623;-81
2022/12/08 14:14:41;;;;;;;8.00;5.97;;;;;;;7.16;71.37;98086.53;5098363;27;41151;-82
2022/12/08 14:17:49;;;;;;;7.20;6.07;;;;;;;6.99;71.18;98068.25;5098041;27;40272;-81
2022/12/08 14:20:58;;;;;;;10.07;6.60;;;;;;;6.96;71.87;98078.13;5097640;27;43121;-83
2022/12/08 14:27:06;;;;;;;9.37;7.00;;;;;;;6.85;71.66;98079.63;5097582;27;42636;-83
2022/12/08 14:30:00;;;;;;;9.43;6.60;;;;;;;6.96;72.46;98099.19;5097514;27;40254;-83
2022/12/08 14:38:15;;;;;;;9.67;6.57;;;;;;;6.68;73.57;98079.78;5129507;27;42885;-81
2022/12/08 14:44:22;;;;;;;8.80;7.00;;;;;;;6.63;73.10;98095.00;5100735;27;41739;-82
2022/12/08 14:47:04;;;;;;;9.83;6.17;;;;;;;6.52;73.17;98094.78;5100656;27;44534;-82
2022/12/08 14:57:13;;;;;;;8.57;6.87;;;;;;;6.36;73.99;98096.59;5115692;27;43059;-81
2022/12/08 14:59:57;;;;;;;7.50;6.13;;;;;;;6.35;74.62;98097.53;5100716;27;41691;-83
2022/12/08 15:02:31;;;;;;;11.33;6.70;;;;;;;6.37;74.97;98098.28;5100771;27;42502;-83
2022/12/08 15:11:37;;;;;;;8.20;6.80;;;;;;;6.02;74.87;98069.63;5115814;27;41155;-82
2022/12/08 15:14:48;;;;;;;8.10;6.53;;;;;;;5.96;75.24;98080.44;5100642;27;43727;-83
2022/12/08 15:17:40;;;;;;;10.30;7.50;;;;;;;5.86;75.18;98083.66;5058831;28;39963;-81
2022/12/08 15:20:41;;;;;;;8.13;7.10;;;;;;;5.89;75.69;98105.38;5059101;28;41701;-82
2022/12/08 15:23:46;;;;;;;7.00;6.13;;;;;;;5.79;75.42;98098.94;5058651;28;43185;-82
2022/12/08 15:26:40;;;;;;;7.07;5.60;;;;;;;5.55;75.94;98071.38;4998436;28;41012;-80
2022/12/08 15:29:21;;;;;;;7.17;6.47;;;;;;;5.59;76.13;98083.38;4999288;28;38695;-80
2022/12/08 15:31:48;;;;;;;10.00;6.23;;;;;;;5.28;76.09;98040.44;5029260;28;42911;-81
